ADDS METAR Data INFO
IDs: Format: Raw Decoded Include TAF

Data at: 1117 UTC 21 Feb 2018

PAOH 201456Z AUTO 00000KT 10SM CLR M11/M12 A3034 RMK AO2 SLP273 T11061117 58005 FZRANO
PAOH 201056Z AUTO 11003KT 10SM CLR M10/M11 A3035 RMK AO2 SLP277 T11001106 FZRANO
PAOH 200956Z AUTO 00000KT 10SM CLR M09/M10 A3034 RMK AO2 SLP274 T10891100 FZRANO
PAOH 200856Z AUTO 10003KT 10SM CLR M09/M09 A3034 RMK AO2 SLP274 T10891094 51006 FZRANO
PAOH 200756Z AUTO 00000KT 10SM CLR M08/M09 A3033 RMK AO2 SLP272 T10781089 400221078 FZRANO
PAOH 200556Z AUTO 00000KT 10SM CLR M06/M07 A3032 RMK AO2 SLP267 T10611067 10022 21061 53015 FZRANO
PAOH 200456Z AUTO 00000KT 10SM CLR M05/M07 A3030 RMK AO2 SLP262 T10501067 FZRANO
PAOH 200156Z AUTO 00000KT 10SM CLR 00/M04 A3026 RMK AO2 SLP249 T00001039 FZRANO
PAOH 200056Z AUTO 27004KT 10SM CLR 02/M04 A3027 RMK AO2 SLP250 T00171044 FZRANO
PAOH 192356Z AUTO 00000KT 10SM CLR 02/M06 A3025 RMK AO2 SLP244 T00171056 10017 21011 56008 FZRANO